CheckWX is a tool to help pilots better visualize weather data.  It is not intended as a substitute for an official pre-flight weather briefing.

15:50:44 UTC

KRWF METAR
Redwood Falls Municipal Airport
Redwood Falls, Minnesota, USA
Current

58 mins ago

KRWF 101453Z AUTO 32004KT 10SM CLR 23/16 A3000 RMK AO2 SLP154 T02330161 51006
Observed
Jul-10 @ 14:53 UTC
Wind
  • 320° at 4 KTS
Visibility
10 SM
Flight Rules
VFR
Cloud Levels
  • Clear skies
Temperature
23°C / 73°F
Dewpoint
16°C / 61°F
Humidity
65%
Altimeter
30" Hg
Pressure
1015.92 hPa
Previous

2 hours ago

KRWF 101353Z AUTO 35006KT 10SM CLR 22/16 A3000 RMK AO2 SLP152 T02220161
Observed
Jul-10 @ 13:53 UTC
Wind
  • 350° at 6 KTS
Visibility
10 SM
Flight Rules
VFR
Cloud Levels
  • Clear skies
Temperature
22°C / 72°F
Dewpoint
16°C / 61°F
Humidity
69%
Altimeter
30" Hg
Pressure
1015.92 hPa
Previous

3 hours ago

KRWF 101253Z AUTO 34005KT 10SM CLR 21/17 A3000 RMK AO2 SLP152 T02060167
Observed
Jul-10 @ 12:53 UTC
Wind
  • 340° at 5 KTS
Visibility
10 SM
Flight Rules
VFR
Cloud Levels
  • Clear skies
Temperature
21°C / 70°F
Dewpoint
17°C / 63°F
Humidity
78%
Altimeter
30" Hg
Pressure
1015.92 hPa